createdAt,value
2018-07-03T00:00:54.252Z,14.20
2018-07-03T00:03:23.888Z,14.10
2018-07-03T00:05:59.366Z,14.10
2018-07-03T00:10:56.356Z,13.80
2018-07-03T00:13:25.120Z,13.80
2018-07-03T00:15:53.376Z,13.70
2018-07-03T00:18:22.092Z,13.60
2018-07-03T00:20:53.546Z,13.60
2018-07-03T00:23:22.711Z,13.60
2018-07-03T00:25:50.928Z,13.90
2018-07-03T00:28:19.223Z,14.00
2018-07-03T00:33:16.509Z,13.90
2018-07-03T00:35:45.173Z,13.70
2018-07-03T00:38:13.417Z,13.60
2018-07-03T00:40:41.705Z,13.60
2018-07-03T00:43:09.977Z,13.50
2018-07-03T00:45:38.745Z,13.40
2018-07-03T00:48:06.988Z,13.30
2018-07-03T00:50:38.189Z,13.30
2018-07-03T00:53:06.412Z,13.20
2018-07-03T00:55:34.661Z,13.20
2018-07-03T00:58:03.246Z,13.10
2018-07-03T01:00:34.749Z,13.10
2018-07-03T01:05:37.381Z,12.90
2018-07-03T01:08:05.656Z,12.90
2018-07-03T01:10:34.148Z,12.80
2018-07-03T01:13:02.392Z,12.80
2018-07-03T01:15:30.608Z,12.80
2018-07-03T01:17:59.777Z,12.90
2018-07-03T01:20:32.236Z,12.90
2018-07-03T01:23:00.493Z,12.90
2018-07-03T01:25:29.520Z,12.80
2018-07-03T01:27:57.864Z,12.80
2018-07-03T01:30:26.094Z,12.80
2018-07-03T01:32:54.539Z,12.70
2018-07-03T01:35:26.547Z,12.70
2018-07-03T01:37:55.440Z,12.60
2018-07-03T01:40:23.712Z,12.60
2018-07-03T01:45:19.916Z,12.50
2018-07-03T01:47:48.384Z,12.40
2018-07-03T01:50:16.610Z,12.30
2018-07-03T01:52:44.859Z,12.20
2018-07-03T01:55:13.066Z,12.20
2018-07-03T01:57:41.319Z,12.20
2018-07-03T02:00:09.560Z,12.10
2018-07-03T02:02:37.762Z,12.10
2018-07-03T02:05:06.041Z,12.10
2018-07-03T02:07:35.268Z,12.10
2018-07-03T02:12:31.975Z,12.00
2018-07-03T02:15:01.104Z,12.00
2018-07-03T02:17:29.374Z,11.90
2018-07-03T02:19:57.736Z,12.00
2018-07-03T02:22:26.360Z,12.00
2018-07-03T02:24:54.633Z,11.90
2018-07-03T02:29:52.460Z,11.90
2018-07-03T02:32:20.662Z,11.80
2018-07-03T02:34:48.883Z,11.80
2018-07-03T02:37:17.084Z,11.70
2018-07-03T02:39:46.197Z,11.80
2018-07-03T02:42:14.447Z,11.80
2018-07-03T02:44:43.249Z,11.70
2018-07-03T02:47:11.497Z,11.70
2018-07-03T02:49:39.700Z,11.70
2018-07-03T02:52:08.824Z,11.70
2018-07-03T02:54:37.026Z,11.60
2018-07-03T02:57:05.241Z,11.60
2018-07-03T02:59:33.768Z,11.80
2018-07-03T03:02:03.162Z,11.70
2018-07-03T03:04:31.361Z,11.60
2018-07-03T03:07:03.968Z,11.60
2018-07-03T03:09:32.208Z,11.60
2018-07-03T03:12:00.468Z,11.60
2018-07-03T03:14:28.704Z,11.60
2018-07-03T03:16:57.884Z,11.50
2018-07-03T03:19:26.138Z,11.50
2018-07-03T03:21:54.456Z,11.50
2018-07-03T03:26:52.180Z,11.60
2018-07-03T03:29:21.281Z,11.70
2018-07-03T03:31:49.538Z,11.80
2018-07-03T03:34:18.148Z,11.80
2018-07-03T03:36:46.413Z,11.70
2018-07-03T03:39:14.700Z,11.70
2018-07-03T03:41:43.422Z,11.70
2018-07-03T03:44:11.640Z,11.80
2018-07-03T03:46:39.917Z,11.80
2018-07-03T03:49:08.190Z,11.80
2018-07-03T03:51:37.488Z,11.80
2018-07-03T03:54:06.093Z,11.80
2018-07-03T03:56:34.344Z,11.90
2018-07-03T03:59:03.159Z,12.40
2018-07-03T04:01:32.237Z,13.10
2018-07-03T04:04:00.542Z,13.70
2018-07-03T04:06:28.831Z,13.60
2018-07-03T04:09:00.832Z,13.10
2018-07-03T04:11:32.217Z,13.00
2018-07-03T04:14:00.445Z,13.60
2018-07-03T04:16:28.665Z,14.90
2018-07-03T04:21:25.859Z,16.50
2018-07-03T04:23:58.185Z,16.70
2018-07-03T04:26:30.930Z,16.40
2018-07-03T04:28:59.192Z,16.80
2018-07-03T04:31:27.492Z,17.90
2018-07-03T04:33:55.716Z,17.90
2018-07-03T04:36:24.034Z,18.10
2018-07-03T04:38:52.433Z,18.40
2018-07-03T04:41:24.545Z,18.60
2018-07-03T04:43:52.775Z,19.00
2018-07-03T04:46:21.053Z,19.80
2018-07-03T04:48:49.356Z,20.50
2018-07-03T04:51:17.635Z,21.00
2018-07-03T04:53:50.720Z,21.70
2018-07-03T04:56:19.171Z,22.10
2018-07-03T04:58:47.453Z,21.90
2018-07-03T05:01:15.824Z,21.80
2018-07-03T05:03:44.047Z,22.40
2018-07-03T05:08:40.287Z,23.60
2018-07-03T05:11:11.336Z,24.10
2018-07-03T05:13:39.694Z,23.60
2018-07-03T05:16:08.913Z,23.80
2018-07-03T05:18:37.378Z,24.10
2018-07-03T05:21:06.741Z,23.80
2018-07-03T05:23:34.973Z,23.50
2018-07-03T05:26:11.280Z,24.10
2018-07-03T05:31:08.920Z,24.60
2018-07-03T05:33:37.385Z,24.20
2018-07-03T05:36:05.725Z,24.30
2018-07-03T05:38:34.096Z,24.50
2018-07-03T05:41:02.378Z,25.30
2018-07-03T05:43:30.696Z,25.90
2018-07-03T05:45:59.701Z,26.10
2018-07-03T05:48:27.969Z,26.60
2018-07-03T05:50:56.225Z,26.40
2018-07-03T05:53:24.585Z,25.80
2018-07-03T05:55:52.805Z,26.40
2018-07-03T05:58:21.118Z,27.00
2018-07-03T06:00:49.348Z,27.00
2018-07-03T06:03:17.709Z,26.90
2018-07-03T06:05:46.005Z,27.60
2018-07-03T06:10:45.969Z,27.90
2018-07-03T06:13:14.418Z,27.90
2018-07-03T06:15:42.742Z,27.20
2018-07-03T06:18:11.276Z,27.60
2018-07-03T06:20:39.536Z,27.20
2018-07-03T06:23:07.834Z,26.00
2018-07-03T06:25:41.668Z,26.80
2018-07-03T06:28:09.923Z,26.60
2018-07-03T06:30:38.218Z,27.10
2018-07-03T06:33:06.529Z,26.80
2018-07-03T06:35:34.854Z,25.80
2018-07-03T06:38:03.131Z,26.80
2018-07-03T06:40:35.640Z,26.50
2018-07-03T06:43:03.957Z,25.80
2018-07-03T06:45:32.283Z,25.50
2018-07-03T06:48:00.525Z,25.50
2018-07-03T06:50:30.756Z,24.00
2018-07-03T06:52:59.008Z,22.60
2018-07-03T06:55:27.333Z,21.70
2018-07-03T06:57:55.648Z,20.80
2018-07-03T07:00:24.826Z,20.50
2018-07-03T07:02:53.154Z,20.20
2018-07-03T07:05:21.541Z,20.00
2018-07-03T07:07:49.945Z,19.60
2018-07-03T07:10:18.505Z,19.50
2018-07-03T07:12:46.785Z,19.60
2018-07-03T07:15:15.091Z,19.70
2018-07-03T07:17:43.370Z,19.90
2018-07-03T07:20:11.687Z,19.90
2018-07-03T07:22:40.116Z,19.90
2018-07-03T07:25:10.126Z,20.10
2018-07-03T07:27:39.114Z,20.20
2018-07-03T07:30:07.963Z,20.30
2018-07-03T07:35:04.533Z,20.50
2018-07-03T07:37:33.697Z,20.60
2018-07-03T07:40:01.940Z,20.60
2018-07-03T07:42:30.613Z,20.60
2018-07-03T07:44:59.254Z,20.60
2018-07-03T07:47:28.888Z,20.70
2018-07-03T07:49:57.420Z,20.90
2018-07-03T07:52:25.881Z,21.00
2018-07-03T07:54:54.125Z,21.10
2018-07-03T07:57:26.473Z,21.20
2018-07-03T07:59:54.735Z,21.20
2018-07-03T08:02:24.101Z,21.20
2018-07-03T08:04:52.436Z,21.10
2018-07-03T08:07:20.658Z,21.10
2018-07-03T08:09:50.296Z,21.20
2018-07-03T08:12:23.132Z,21.20
2018-07-03T08:14:52.301Z,21.30
2018-07-03T08:17:20.592Z,21.30
2018-07-03T08:19:48.975Z,21.30
2018-07-03T08:22:17.245Z,21.40
2018-07-03T08:24:45.465Z,21.50
2018-07-03T08:27:18.052Z,21.50
2018-07-03T08:29:46.273Z,21.70
2018-07-03T08:32:15.194Z,21.70
2018-07-03T08:34:43.541Z,21.70
2018-07-03T08:37:11.780Z,21.90
2018-07-03T08:39:40.080Z,22.10
2018-07-03T08:42:08.627Z,22.20
2018-07-03T08:44:37.518Z,22.20
2018-07-03T08:47:05.744Z,22.30
2018-07-03T08:49:34.944Z,22.40
2018-07-03T08:52:04.174Z,22.60
2018-07-03T08:57:01.563Z,22.80
2018-07-03T08:59:29.825Z,22.90
2018-07-03T09:01:58.072Z,23.00
2018-07-03T09:04:26.379Z,23.00
2018-07-03T09:06:55.056Z,23.00
2018-07-03T09:11:52.292Z,23.30
2018-07-03T09:14:25.325Z,23.40
2018-07-03T09:16:54.269Z,23.50
2018-07-03T09:19:22.729Z,23.50
2018-07-03T09:21:51.349Z,23.40
2018-07-03T09:24:20.627Z,23.50
2018-07-03T09:26:49.985Z,23.60
2018-07-03T09:29:18.213Z,23.60
2018-07-03T09:31:50.113Z,23.50
2018-07-03T09:34:18.600Z,23.60
2018-07-03T09:36:46.914Z,23.60
2018-07-03T09:39:16.750Z,23.80
2018-07-03T09:44:13.810Z,23.80
2018-07-03T09:46:52.677Z,23.80
2018-07-03T09:49:20.908Z,23.80
2018-07-03T09:51:49.226Z,23.90
2018-07-03T09:56:45.534Z,24.10
2018-07-03T09:59:13.797Z,24.20
2018-07-03T10:01:43.261Z,24.20
2018-07-03T10:04:12.048Z,24.20
2018-07-03T10:09:09.784Z,24.20
2018-07-03T10:11:38.041Z,24.30
2018-07-03T10:14:07.353Z,24.40
2018-07-03T10:16:35.628Z,24.20
2018-07-03T10:19:03.962Z,24.20
2018-07-03T10:21:32.744Z,24.20
2018-07-03T10:24:02.602Z,24.40
2018-07-03T10:29:00.475Z,24.20
2018-07-03T10:31:28.721Z,24.20
2018-07-03T10:33:57.420Z,24.20
2018-07-03T10:36:26.072Z,24.20
2018-07-03T10:38:54.333Z,24.10
2018-07-03T10:41:23.502Z,24.10
2018-07-03T10:43:52.246Z,24.30
2018-07-03T10:46:24.006Z,24.40
2018-07-03T10:48:52.590Z,24.40
2018-07-03T10:51:20.864Z,24.50
2018-07-03T10:53:49.362Z,24.40
2018-07-03T10:56:18.370Z,24.50
2018-07-03T10:58:47.237Z,24.40
2018-07-03T11:01:15.477Z,24.60
2018-07-03T11:03:44.004Z,24.60
2018-07-03T11:06:12.832Z,24.60
2018-07-03T11:08:42.507Z,24.40
2018-07-03T11:11:10.815Z,24.40
2018-07-03T11:13:39.115Z,24.60
2018-07-03T11:16:07.626Z,24.70
2018-07-03T11:18:35.893Z,24.80
2018-07-03T11:21:04.141Z,24.80
2018-07-03T11:28:30.380Z,25.00
2018-07-03T11:31:05.778Z,25.10
2018-07-03T11:33:37.649Z,25.40
2018-07-03T11:36:05.973Z,25.40
2018-07-03T11:38:34.709Z,25.40
2018-07-03T11:43:34.044Z,25.40
2018-07-03T11:46:03.585Z,25.20
2018-07-03T11:50:59.870Z,25.60
2018-07-03T11:53:28.520Z,25.70
2018-07-03T11:55:56.978Z,25.60
2018-07-03T11:58:25.216Z,25.80
2018-07-03T12:00:53.463Z,26.00
2018-07-03T12:03:21.736Z,25.70
2018-07-03T12:05:50.149Z,25.70
2018-07-03T12:08:18.419Z,25.90
2018-07-03T12:10:46.762Z,26.00
2018-07-03T12:13:14.956Z,25.90
2018-07-03T12:15:43.255Z,25.90
2018-07-03T12:18:15.797Z,25.80
2018-07-03T12:20:44.064Z,26.00
2018-07-03T12:23:14.189Z,26.40
2018-07-03T12:28:12.009Z,26.50
2018-07-03T12:30:40.690Z,26.50
2018-07-03T12:33:09.477Z,26.40
2018-07-03T12:35:38.476Z,26.00
2018-07-03T12:38:09.084Z,26.10
2018-07-03T12:40:42.094Z,26.20
2018-07-03T12:43:10.661Z,26.20
2018-07-03T12:45:41.817Z,26.20
2018-07-03T12:48:10.660Z,26.20
2018-07-03T12:50:40.529Z,26.30
2018-07-03T12:55:37.873Z,26.70
2018-07-03T12:58:06.087Z,26.70
2018-07-03T13:00:35.817Z,26.80
2018-07-03T13:03:05.793Z,26.60
2018-07-03T13:08:03.023Z,26.80
2018-07-03T13:10:31.561Z,26.70
2018-07-03T13:15:28.172Z,26.70
2018-07-03T13:17:56.512Z,26.60
2018-07-03T13:20:25.661Z,26.70
2018-07-03T13:22:54.465Z,27.10
2018-07-03T13:25:22.709Z,27.30
2018-07-03T13:27:51.446Z,27.20
2018-07-03T13:30:19.756Z,27.30
2018-07-03T13:32:48.861Z,27.30
2018-07-03T13:35:17.087Z,27.40
2018-07-03T13:37:45.325Z,27.20
2018-07-03T13:40:14.521Z,27.20
2018-07-03T13:42:43.102Z,27.20
2018-07-03T13:45:11.900Z,27.10
2018-07-03T13:47:40.148Z,27.00
2018-07-03T13:50:09.658Z,27.10
2018-07-03T13:52:38.023Z,27.20
2018-07-03T13:55:06.420Z,27.30
2018-07-03T13:57:34.690Z,27.20
2018-07-03T14:00:02.946Z,27.20
2018-07-03T14:02:31.264Z,27.30
2018-07-03T14:04:59.497Z,27.30
2018-07-03T14:07:27.773Z,27.30
2018-07-03T14:09:56.100Z,27.50
2018-07-03T14:12:24.357Z,27.60
2018-07-03T14:14:53.194Z,27.80
2018-07-03T14:17:21.425Z,28.00
2018-07-03T14:19:49.644Z,27.50
2018-07-03T14:22:18.308Z,27.30
2018-07-03T14:24:46.725Z,27.20
2018-07-03T14:27:15.623Z,27.10
2018-07-03T14:29:43.867Z,27.20
2018-07-03T14:32:12.667Z,27.40
2018-07-03T14:34:40.915Z,27.30
2018-07-03T14:37:09.318Z,27.40
2018-07-03T14:39:38.384Z,27.60
2018-07-03T14:42:07.343Z,27.60
2018-07-03T14:44:35.790Z,27.80
2018-07-03T14:47:04.085Z,27.90
2018-07-03T14:49:36.630Z,28.00
2018-07-03T14:52:05.051Z,28.00
2018-07-03T14:54:33.628Z,28.00
2018-07-03T14:57:02.029Z,27.90
2018-07-03T15:01:58.298Z,28.30
2018-07-03T15:04:26.506Z,28.10
2018-07-03T15:06:57.588Z,28.00
2018-07-03T15:09:25.844Z,28.00
2018-07-03T15:11:54.609Z,27.80
2018-07-03T15:14:24.164Z,27.70
2018-07-03T15:16:52.395Z,27.40
2018-07-03T15:19:30.006Z,27.50
2018-07-03T15:22:05.416Z,27.70
2018-07-03T15:24:33.705Z,27.90
2018-07-03T15:27:01.940Z,28.10
2018-07-03T15:29:30.901Z,28.30
2018-07-03T15:31:59.584Z,28.30
2018-07-03T15:34:27.841Z,28.40
2018-07-03T15:36:59.954Z,28.40
2018-07-03T15:39:28.848Z,28.30
2018-07-03T15:41:57.116Z,28.30
2018-07-03T15:47:00.651Z,28.00
2018-07-03T15:49:35.896Z,28.00
2018-07-03T15:52:07.524Z,27.90
2018-07-03T15:54:35.781Z,27.90
2018-07-03T15:57:04.081Z,28.00
2018-07-03T15:59:33.330Z,27.90
2018-07-03T16:02:01.552Z,28.10
2018-07-03T16:05:11.707Z,28.30
2018-07-03T16:08:04.764Z,28.40
2018-07-03T16:10:33.838Z,28.60
2018-07-03T16:13:02.041Z,29.60
2018-07-03T16:15:30.530Z,30.80
2018-07-03T16:17:59.213Z,32.60
2018-07-03T16:20:36.432Z,32.60
2018-07-03T16:23:06.304Z,32.80
2018-07-03T16:25:34.624Z,34.40
2018-07-03T16:28:02.991Z,35.40
2018-07-03T16:30:32.337Z,36.40
2018-07-03T16:33:00.936Z,37.60
2018-07-03T16:35:29.201Z,38.60
2018-07-03T16:38:01.751Z,39.20
2018-07-03T16:40:30.892Z,39.50
2018-07-03T16:42:59.250Z,38.30
2018-07-03T16:45:27.530Z,37.90
2018-07-03T16:47:55.752Z,36.90
2018-07-03T16:52:59.932Z,34.60
2018-07-03T16:55:28.233Z,34.60
2018-07-03T16:57:56.640Z,33.20
2018-07-03T17:00:28.812Z,35.00
2018-07-03T17:02:58.196Z,37.60
2018-07-03T17:05:27.438Z,39.10
2018-07-03T17:07:59.233Z,40.30
2018-07-03T17:10:28.036Z,41.10
2018-07-03T17:12:56.492Z,41.90
2018-07-03T17:15:25.073Z,42.10
2018-07-03T17:17:53.501Z,41.90
2018-07-03T17:20:21.806Z,41.40
2018-07-03T17:22:51.204Z,41.20
2018-07-03T17:25:19.693Z,39.60
2018-07-03T17:27:48.946Z,39.70
2018-07-03T17:30:18.005Z,40.80
2018-07-03T17:32:46.860Z,41.40
2018-07-03T17:37:43.494Z,41.50
2018-07-03T17:43:03.141Z,38.60
2018-07-03T17:48:08.836Z,36.20
2018-07-03T17:50:37.880Z,35.80
2018-07-03T17:53:06.473Z,34.70
2018-07-03T17:58:06.319Z,33.60
2018-07-03T18:03:03.258Z,34.60
2018-07-03T18:05:32.173Z,35.40
2018-07-03T18:08:00.684Z,34.50
2018-07-03T18:10:29.171Z,33.50
2018-07-03T18:12:58.028Z,33.50
2018-07-03T18:15:27.153Z,35.10
2018-07-03T18:17:56.009Z,36.00
2018-07-03T18:20:24.373Z,34.70
2018-07-03T18:22:56.677Z,35.00
2018-07-03T18:25:25.150Z,34.70
2018-07-03T18:27:53.645Z,34.70
2018-07-03T18:30:21.976Z,35.30
2018-07-03T18:32:50.455Z,34.90
2018-07-03T18:35:19.548Z,33.90
2018-07-03T18:37:48.858Z,32.70
2018-07-03T18:40:17.176Z,33.00
2018-07-03T18:42:45.591Z,32.20
2018-07-03T18:45:13.840Z,31.50
2018-07-03T18:50:11.362Z,30.80
2018-07-03T18:52:47.634Z,30.10
2018-07-03T18:55:18.221Z,30.50
2018-07-03T18:57:46.637Z,30.70
2018-07-03T19:00:15.091Z,30.70
2018-07-03T19:02:44.339Z,29.60
2018-07-03T19:05:12.771Z,28.50
2018-07-03T19:07:44.788Z,27.60
2018-07-03T19:10:13.434Z,26.90
2018-07-03T19:12:41.880Z,26.20
2018-07-03T19:15:11.018Z,25.70
2018-07-03T19:17:42.133Z,25.30
2018-07-03T19:20:12.333Z,24.90
2018-07-03T19:22:40.784Z,24.50
2018-07-03T19:25:08.991Z,24.20
2018-07-03T19:27:37.318Z,24.00
2018-07-03T19:30:05.742Z,23.70
2018-07-03T19:32:34.043Z,23.50
2018-07-03T19:35:02.355Z,23.40
2018-07-03T19:37:30.836Z,23.20
2018-07-03T19:39:59.085Z,23.00
2018-07-03T19:42:27.343Z,22.80
2018-07-03T19:44:55.743Z,22.90
2018-07-03T19:47:25.066Z,22.90
2018-07-03T19:49:53.331Z,22.80
2018-07-03T19:52:21.923Z,22.60
2018-07-03T19:54:50.304Z,22.50
2018-07-03T19:57:18.960Z,22.20
2018-07-03T20:02:15.341Z,22.00
2018-07-03T20:04:43.570Z,21.80
2018-07-03T20:07:12.542Z,21.50
2018-07-03T20:09:40.787Z,21.30
2018-07-03T20:12:09.037Z,21.10
2018-07-03T20:14:37.413Z,21.00
2018-07-03T20:17:05.713Z,20.80
2018-07-03T20:19:33.935Z,20.70
2018-07-03T20:22:02.145Z,20.60
2018-07-03T20:24:31.921Z,20.40
2018-07-03T20:27:00.106Z,20.20
2018-07-03T20:29:28.883Z,20.10
2018-07-03T20:31:57.214Z,20.00
2018-07-03T20:34:25.502Z,20.00
2018-07-03T20:36:53.866Z,19.90
2018-07-03T20:39:22.391Z,19.90
2018-07-03T20:41:52.243Z,19.80
2018-07-03T20:44:21.590Z,19.70
2018-07-03T20:46:50.006Z,19.70
2018-07-03T20:49:19.057Z,19.60
2018-07-03T20:51:47.450Z,19.50
2018-07-03T20:56:45.053Z,19.30
2018-07-03T20:59:13.931Z,19.20
2018-07-03T21:01:42.914Z,19.20
2018-07-03T21:04:11.197Z,19.00
2018-07-03T21:06:40.212Z,19.00
2018-07-03T21:09:09.780Z,18.90
2018-07-03T21:11:39.623Z,18.80
2018-07-03T21:14:07.900Z,18.70
2018-07-03T21:16:36.802Z,18.70
2018-07-03T21:19:05.869Z,18.70
2018-07-03T21:21:34.376Z,18.70
2018-07-03T21:24:05.110Z,18.70
2018-07-03T21:26:38.033Z,18.60
2018-07-03T21:29:06.339Z,18.60
2018-07-03T21:31:35.024Z,18.60
2018-07-03T21:34:04.806Z,18.50
2018-07-03T21:36:33.151Z,18.40
2018-07-03T21:39:01.665Z,18.30
2018-07-03T21:41:29.836Z,18.30
2018-07-03T21:43:59.752Z,18.20
2018-07-03T21:46:28.255Z,18.10
2018-07-03T21:48:56.839Z,18.00
2018-07-03T21:51:25.244Z,18.00
2018-07-03T21:53:53.473Z,17.90
2018-07-03T21:56:26.585Z,17.80
2018-07-03T22:01:22.963Z,17.80
2018-07-03T22:03:51.268Z,17.70
2018-07-03T22:06:20.031Z,17.70
2018-07-03T22:08:48.432Z,17.60
2018-07-03T22:11:20.114Z,17.60
2018-07-03T22:13:48.308Z,17.50
2018-07-03T22:16:16.541Z,17.50
2018-07-03T22:18:44.968Z,17.40
2018-07-03T22:21:13.270Z,17.30
2018-07-03T22:26:13.828Z,17.30
2018-07-03T22:28:45.340Z,17.30
2018-07-03T22:31:13.600Z,17.20
2018-07-03T22:33:41.844Z,17.10
2018-07-03T22:36:10.856Z,17.10
2018-07-03T22:38:39.240Z,17.00
2018-07-03T22:41:12.229Z,17.00
2018-07-03T22:43:44.880Z,16.90
2018-07-03T22:46:13.136Z,16.80
2018-07-03T22:48:42.159Z,16.80
2018-07-03T22:51:14.317Z,16.70
2018-07-03T22:53:42.593Z,16.60
2018-07-03T22:56:10.845Z,16.50
2018-07-03T22:58:39.133Z,16.40
2018-07-03T23:01:07.371Z,16.30
2018-07-03T23:03:35.547Z,16.30
2018-07-03T23:06:03.772Z,16.30
2018-07-03T23:08:31.976Z,16.30
2018-07-03T23:11:00.169Z,16.30
2018-07-03T23:13:32.625Z,16.30
2018-07-03T23:16:00.992Z,16.30
2018-07-03T23:18:29.309Z,16.20
2018-07-03T23:20:57.616Z,16.10
2018-07-03T23:23:25.876Z,16.10
2018-07-03T23:25:54.208Z,16.00
2018-07-03T23:28:25.681Z,16.10
2018-07-03T23:30:53.961Z,16.10
2018-07-03T23:33:22.261Z,16.00
2018-07-03T23:35:50.539Z,15.90
2018-07-03T23:38:18.784Z,15.90
2018-07-03T23:40:47.030Z,15.90
2018-07-03T23:43:19.002Z,15.80
2018-07-03T23:46:04.884Z,15.80
2018-07-03T23:51:18.905Z,15.70
2018-07-03T23:53:59.248Z,15.70
2018-07-03T23:56:39.587Z,15.60
2018-07-03T23:59:23.492Z,15.60
